sensor_id;sensor_type;location;lat;lon;timestamp;P1;durP1;ratioP1;P2;durP2;ratioP2
65096;SDS011;51686;46.758;4.356;2023-07-13T00:00:11;7.30;;;2.73;;
65096;SDS011;51686;46.758;4.356;2023-07-13T00:02:58;6.63;;;2.47;;
65096;SDS011;51686;46.758;4.356;2023-07-13T00:05:45;6.20;;;2.80;;
65096;SDS011;51686;46.758;4.356;2023-07-13T00:08:33;6.28;;;2.75;;
65096;SDS011;51686;46.758;4.356;2023-07-13T00:11:20;5.60;;;2.50;;
65096;SDS011;51686;46.758;4.356;2023-07-13T00:14:07;6.05;;;2.42;;
65096;SDS011;51686;46.758;4.356;2023-07-13T00:16:54;7.53;;;2.90;;
65096;SDS011;51686;46.758;4.356;2023-07-13T00:19:41;6.50;;;2.65;;
65096;SDS011;51686;46.758;4.356;2023-07-13T00:22:28;6.30;;;2.80;;
65096;SDS011;51686;46.758;4.356;2023-07-13T00:25:15;6.15;;;2.70;;
65096;SDS011;51686;46.758;4.356;2023-07-13T00:30:50;5.45;;;2.30;;
65096;SDS011;51686;46.758;4.356;2023-07-13T00:33:37;5.28;;;2.40;;
65096;SDS011;51686;46.758;4.356;2023-07-13T00:36:24;6.00;;;2.60;;
65096;SDS011;51686;46.758;4.356;2023-07-13T00:39:12;5.57;;;2.55;;
65096;SDS011;51686;46.758;4.356;2023-07-13T00:41:59;5.93;;;2.55;;
65096;SDS011;51686;46.758;4.356;2023-07-13T00:47:54;6.70;;;2.67;;
65096;SDS011;51686;46.758;4.356;2023-07-13T00:50:43;6.35;;;2.30;;
65096;SDS011;51686;46.758;4.356;2023-07-13T00:53:31;5.93;;;2.50;;
65096;SDS011;51686;46.758;4.356;2023-07-13T00:56:19;6.75;;;2.38;;
65096;SDS011;51686;46.758;4.356;2023-07-13T00:59:07;6.55;;;2.45;;
65096;SDS011;51686;46.758;4.356;2023-07-13T01:01:55;6.47;;;2.45;;
65096;SDS011;51686;46.758;4.356;2023-07-13T01:04:42;5.72;;;2.58;;
65096;SDS011;51686;46.758;4.356;2023-07-13T01:10:18;7.00;;;2.55;;
65096;SDS011;51686;46.758;4.356;2023-07-13T01:13:10;6.30;;;2.47;;
65096;SDS011;51686;46.758;4.356;2023-07-13T01:15:58;6.10;;;2.60;;
65096;SDS011;51686;46.758;4.356;2023-07-13T01:18:47;6.78;;;2.60;;
65096;SDS011;51686;46.758;4.356;2023-07-13T01:21:34;5.55;;;2.38;;
65096;SDS011;51686;46.758;4.356;2023-07-13T01:24:21;7.13;;;2.88;;
65096;SDS011;51686;46.758;4.356;2023-07-13T01:27:09;5.82;;;2.63;;
65096;SDS011;51686;46.758;4.356;2023-07-13T01:29:57;5.20;;;2.30;;
65096;SDS011;51686;46.758;4.356;2023-07-13T01:32:49;6.30;;;2.60;;
65096;SDS011;51686;46.758;4.356;2023-07-13T01:35:39;7.65;;;2.58;;
65096;SDS011;51686;46.758;4.356;2023-07-13T01:38:26;6.73;;;2.80;;
65096;SDS011;51686;46.758;4.356;2023-07-13T01:41:13;7.07;;;2.80;;
65096;SDS011;51686;46.758;4.356;2023-07-13T01:44:00;6.25;;;2.80;;
65096;SDS011;51686;46.758;4.356;2023-07-13T01:46:47;6.65;;;2.85;;
65096;SDS011;51686;46.758;4.356;2023-07-13T01:49:34;8.30;;;2.70;;
65096;SDS011;51686;46.758;4.356;2023-07-13T01:52:21;6.45;;;2.75;;
65096;SDS011;51686;46.758;4.356;2023-07-13T01:55:08;6.45;;;2.90;;
65096;SDS011;51686;46.758;4.356;2023-07-13T01:57:55;5.88;;;2.70;;
65096;SDS011;51686;46.758;4.356;2023-07-13T02:00:42;6.32;;;2.80;;
65096;SDS011;51686;46.758;4.356;2023-07-13T02:03:29;7.10;;;2.83;;
65096;SDS011;51686;46.758;4.356;2023-07-13T02:06:16;6.03;;;2.70;;
65096;SDS011;51686;46.758;4.356;2023-07-13T02:09:03;7.53;;;2.97;;
65096;SDS011;51686;46.758;4.356;2023-07-13T02:11:50;6.70;;;2.80;;
65096;SDS011;51686;46.758;4.356;2023-07-13T02:14:37;6.22;;;2.83;;
65096;SDS011;51686;46.758;4.356;2023-07-13T02:17:25;6.60;;;2.87;;
65096;SDS011;51686;46.758;4.356;2023-07-13T02:22:59;6.35;;;2.70;;
65096;SDS011;51686;46.758;4.356;2023-07-13T02:25:46;6.63;;;2.90;;
65096;SDS011;51686;46.758;4.356;2023-07-13T02:28:33;6.18;;;2.72;;
65096;SDS011;51686;46.758;4.356;2023-07-13T02:31:20;7.30;;;3.00;;
65096;SDS011;51686;46.758;4.356;2023-07-13T02:34:07;6.47;;;2.80;;
65096;SDS011;51686;46.758;4.356;2023-07-13T02:36:54;6.78;;;2.90;;
65096;SDS011;51686;46.758;4.356;2023-07-13T02:39:41;6.45;;;2.90;;
65096;SDS011;51686;46.758;4.356;2023-07-13T02:42:28;7.20;;;3.00;;
65096;SDS011;51686;46.758;4.356;2023-07-13T02:45:15;6.40;;;2.90;;
65096;SDS011;51686;46.758;4.356;2023-07-13T02:48:02;6.22;;;2.70;;
65096;SDS011;51686;46.758;4.356;2023-07-13T02:50:49;6.82;;;2.85;;
65096;SDS011;51686;46.758;4.356;2023-07-13T02:53:36;7.90;;;3.33;;
65096;SDS011;51686;46.758;4.356;2023-07-13T02:56:24;6.28;;;2.80;;
65096;SDS011;51686;46.758;4.356;2023-07-13T02:59:12;6.78;;;2.70;;
65096;SDS011;51686;46.758;4.356;2023-07-13T03:02:00;6.95;;;3.08;;
65096;SDS011;51686;46.758;4.356;2023-07-13T03:04:48;6.50;;;3.13;;
65096;SDS011;51686;46.758;4.356;2023-07-13T03:07:34;7.72;;;3.13;;
65096;SDS011;51686;46.758;4.356;2023-07-13T03:10:21;6.55;;;2.92;;
65096;SDS011;51686;46.758;4.356;2023-07-13T03:13:08;7.93;;;2.97;;
65096;SDS011;51686;46.758;4.356;2023-07-13T03:15:55;6.68;;;2.53;;
65096;SDS011;51686;46.758;4.356;2023-07-13T03:18:42;8.45;;;2.92;;
65096;SDS011;51686;46.758;4.356;2023-07-13T03:21:29;6.85;;;3.00;;
65096;SDS011;51686;46.758;4.356;2023-07-13T03:24:16;6.18;;;2.92;;
65096;SDS011;51686;46.758;4.356;2023-07-13T03:27:04;6.93;;;2.88;;
65096;SDS011;51686;46.758;4.356;2023-07-13T03:29:51;7.97;;;3.00;;
65096;SDS011;51686;46.758;4.356;2023-07-13T03:32:38;8.02;;;3.03;;
65096;SDS011;51686;46.758;4.356;2023-07-13T03:35:25;7.50;;;3.05;;
65096;SDS011;51686;46.758;4.356;2023-07-13T03:38:12;6.75;;;2.78;;
65096;SDS011;51686;46.758;4.356;2023-07-13T03:40:59;8.20;;;2.72;;
65096;SDS011;51686;46.758;4.356;2023-07-13T03:43:46;6.95;;;2.50;;
65096;SDS011;51686;46.758;4.356;2023-07-13T03:46:34;6.90;;;2.70;;
65096;SDS011;51686;46.758;4.356;2023-07-13T03:49:21;6.88;;;2.85;;
65096;SDS011;51686;46.758;4.356;2023-07-13T03:52:08;7.35;;;2.83;;
65096;SDS011;51686;46.758;4.356;2023-07-13T03:54:55;6.40;;;2.80;;
65096;SDS011;51686;46.758;4.356;2023-07-13T03:57:42;8.27;;;2.70;;
65096;SDS011;51686;46.758;4.356;2023-07-13T04:00:29;5.95;;;2.70;;
65096;SDS011;51686;46.758;4.356;2023-07-13T04:03:16;5.97;;;2.75;;
65096;SDS011;51686;46.758;4.356;2023-07-13T04:06:04;7.35;;;2.70;;
65096;SDS011;51686;46.758;4.356;2023-07-13T04:08:53;5.90;;;2.53;;
65096;SDS011;51686;46.758;4.356;2023-07-13T04:11:41;7.65;;;2.83;;
65096;SDS011;51686;46.758;4.356;2023-07-13T04:14:28;6.35;;;2.70;;
65096;SDS011;51686;46.758;4.356;2023-07-13T04:17:15;5.88;;;2.58;;
65096;SDS011;51686;46.758;4.356;2023-07-13T04:20:02;7.03;;;2.63;;
65096;SDS011;51686;46.758;4.356;2023-07-13T04:22:50;5.57;;;2.40;;
65096;SDS011;51686;46.758;4.356;2023-07-13T04:25:37;7.35;;;2.88;;
65096;SDS011;51686;46.758;4.356;2023-07-13T04:28:24;7.25;;;2.72;;
65096;SDS011;51686;46.758;4.356;2023-07-13T04:31:12;6.82;;;2.70;;
65096;SDS011;51686;46.758;4.356;2023-07-13T04:33:59;8.82;;;3.05;;
65096;SDS011;51686;46.758;4.356;2023-07-13T04:36:46;5.57;;;2.50;;
65096;SDS011;51686;46.758;4.356;2023-07-13T04:39:33;6.28;;;2.70;;
65096;SDS011;51686;46.758;4.356;2023-07-13T04:42:21;6.70;;;2.70;;
65096;SDS011;51686;46.758;4.356;2023-07-13T04:45:09;6.93;;;2.60;;
65096;SDS011;51686;46.758;4.356;2023-07-13T04:47:56;6.28;;;2.65;;
65096;SDS011;51686;46.758;4.356;2023-07-13T04:50:43;5.93;;;2.40;;
65096;SDS011;51686;46.758;4.356;2023-07-13T04:53:32;7.28;;;2.67;;
65096;SDS011;51686;46.758;4.356;2023-07-13T04:56:21;6.03;;;2.50;;
65096;SDS011;51686;46.758;4.356;2023-07-13T04:59:08;6.70;;;2.40;;
65096;SDS011;51686;46.758;4.356;2023-07-13T05:01:55;7.00;;;2.80;;
65096;SDS011;51686;46.758;4.356;2023-07-13T05:04:42;6.38;;;2.55;;
65096;SDS011;51686;46.758;4.356;2023-07-13T05:07:29;6.30;;;2.40;;
65096;SDS011;51686;46.758;4.356;2023-07-13T05:10:16;5.82;;;2.40;;
65096;SDS011;51686;46.758;4.356;2023-07-13T05:13:03;6.50;;;2.63;;
65096;SDS011;51686;46.758;4.356;2023-07-13T05:16:03;5.95;;;2.42;;
65096;SDS011;51686;46.758;4.356;2023-07-13T05:18:52;7.03;;;2.30;;
65096;SDS011;51686;46.758;4.356;2023-07-13T05:21:40;7.07;;;2.60;;
65096;SDS011;51686;46.758;4.356;2023-07-13T05:24:28;7.03;;;2.63;;
65096;SDS011;51686;46.758;4.356;2023-07-13T05:27:15;9.75;;;2.80;;
65096;SDS011;51686;46.758;4.356;2023-07-13T05:30:02;5.32;;;2.20;;
65096;SDS011;51686;46.758;4.356;2023-07-13T05:32:50;6.13;;;2.55;;
65096;SDS011;51686;46.758;4.356;2023-07-13T05:35:36;6.68;;;2.63;;
65096;SDS011;51686;46.758;4.356;2023-07-13T05:38:23;7.53;;;2.60;;
65096;SDS011;51686;46.758;4.356;2023-07-13T05:41:10;6.45;;;2.58;;
65096;SDS011;51686;46.758;4.356;2023-07-13T05:43:57;6.45;;;2.40;;
65096;SDS011;51686;46.758;4.356;2023-07-13T05:46:44;5.65;;;2.35;;
65096;SDS011;51686;46.758;4.356;2023-07-13T05:49:31;5.35;;;2.20;;
65096;SDS011;51686;46.758;4.356;2023-07-13T05:52:18;6.53;;;2.67;;
65096;SDS011;51686;46.758;4.356;2023-07-13T05:55:05;5.90;;;2.30;;
65096;SDS011;51686;46.758;4.356;2023-07-13T05:57:52;5.72;;;2.33;;
65096;SDS011;51686;46.758;4.356;2023-07-13T06:00:39;4.53;;;2.00;;
65096;SDS011;51686;46.758;4.356;2023-07-13T06:03:27;6.18;;;2.20;;
65096;SDS011;51686;46.758;4.356;2023-07-13T06:06:14;5.00;;;1.80;;
65096;SDS011;51686;46.758;4.356;2023-07-13T06:09:02;5.53;;;2.20;;
65096;SDS011;51686;46.758;4.356;2023-07-13T06:11:49;5.80;;;2.05;;
65096;SDS011;51686;46.758;4.356;2023-07-13T06:14:36;5.55;;;1.95;;
65096;SDS011;51686;46.758;4.356;2023-07-13T06:17:23;4.15;;;1.83;;
65096;SDS011;51686;46.758;4.356;2023-07-13T06:20:10;4.25;;;1.90;;
65096;SDS011;51686;46.758;4.356;2023-07-13T06:23:01;4.30;;;1.65;;
65096;SDS011;51686;46.758;4.356;2023-07-13T06:25:48;5.53;;;1.80;;
65096;SDS011;51686;46.758;4.356;2023-07-13T06:28:35;6.20;;;2.22;;
65096;SDS011;51686;46.758;4.356;2023-07-13T06:31:23;4.68;;;1.80;;
65096;SDS011;51686;46.758;4.356;2023-07-13T06:34:10;3.95;;;1.83;;
65096;SDS011;51686;46.758;4.356;2023-07-13T06:36:57;4.93;;;1.80;;
65096;SDS011;51686;46.758;4.356;2023-07-13T06:39:44;4.53;;;1.80;;
65096;SDS011;51686;46.758;4.356;2023-07-13T06:42:31;4.00;;;1.85;;
65096;SDS011;51686;46.758;4.356;2023-07-13T06:45:17;4.43;;;1.73;;
65096;SDS011;51686;46.758;4.356;2023-07-13T06:48:04;4.03;;;1.70;;
65096;SDS011;51686;46.758;4.356;2023-07-13T06:50:52;5.30;;;2.00;;
65096;SDS011;51686;46.758;4.356;2023-07-13T06:53:39;6.32;;;2.10;;
65096;SDS011;51686;46.758;4.356;2023-07-13T06:56:26;3.97;;;1.90;;
65096;SDS011;51686;46.758;4.356;2023-07-13T06:59:13;3.25;;;1.70;;
65096;SDS011;51686;46.758;4.356;2023-07-13T07:02:00;5.63;;;1.70;;
65096;SDS011;51686;46.758;4.356;2023-07-13T07:04:47;3.33;;;1.55;;
65096;SDS011;51686;46.758;4.356;2023-07-13T07:07:34;2.90;;;1.60;;
65096;SDS011;51686;46.758;4.356;2023-07-13T07:10:21;4.35;;;1.75;;
65096;SDS011;51686;46.758;4.356;2023-07-13T07:13:08;4.63;;;1.75;;
65096;SDS011;51686;46.758;4.356;2023-07-13T07:15:55;3.05;;;1.60;;
65096;SDS011;51686;46.758;4.356;2023-07-13T07:18:42;5.18;;;1.80;;
65096;SDS011;51686;46.758;4.356;2023-07-13T07:21:29;4.57;;;1.50;;
65096;SDS011;51686;46.758;4.356;2023-07-13T07:27:04;3.65;;;1.50;;
65096;SDS011;51686;46.758;4.356;2023-07-13T07:29:54;3.72;;;1.48;;
65096;SDS011;51686;46.758;4.356;2023-07-13T07:33:01;4.13;;;1.60;;
65096;SDS011;51686;46.758;4.356;2023-07-13T07:35:51;4.47;;;1.52;;
65096;SDS011;51686;46.758;4.356;2023-07-13T07:38:41;3.90;;;1.60;;
65096;SDS011;51686;46.758;4.356;2023-07-13T07:41:29;3.00;;;1.23;;
65096;SDS011;51686;46.758;4.356;2023-07-13T07:44:18;3.97;;;1.50;;
65096;SDS011;51686;46.758;4.356;2023-07-13T07:47:05;4.43;;;1.30;;
65096;SDS011;51686;46.758;4.356;2023-07-13T07:49:52;2.55;;;1.48;;
65096;SDS011;51686;46.758;4.356;2023-07-13T07:52:40;3.22;;;1.52;;
65096;SDS011;51686;46.758;4.356;2023-07-13T07:55:27;3.25;;;1.40;;
65096;SDS011;51686;46.758;4.356;2023-07-13T07:58:16;3.58;;;1.50;;
65096;SDS011;51686;46.758;4.356;2023-07-13T08:01:23;3.95;;;1.50;;
65096;SDS011;51686;46.758;4.356;2023-07-13T08:04:13;2.80;;;1.40;;
65096;SDS011;51686;46.758;4.356;2023-07-13T08:07:20;5.18;;;1.45;;
65096;SDS011;51686;46.758;4.356;2023-07-13T08:10:07;3.72;;;1.40;;
65096;SDS011;51686;46.758;4.356;2023-07-13T08:12:54;3.92;;;1.58;;
65096;SDS011;51686;46.758;4.356;2023-07-13T08:15:44;3.22;;;1.50;;
65096;SDS011;51686;46.758;4.356;2023-07-13T08:18:32;3.05;;;1.45;;
65096;SDS011;51686;46.758;4.356;2023-07-13T08:21:19;1.70;;;1.25;;
65096;SDS011;51686;46.758;4.356;2023-07-13T08:24:06;3.03;;;1.20;;
65096;SDS011;51686;46.758;4.356;2023-07-13T08:26:53;3.95;;;1.25;;
65096;SDS011;51686;46.758;4.356;2023-07-13T08:29:40;2.20;;;1.27;;
65096;SDS011;51686;46.758;4.356;2023-07-13T08:32:27;2.22;;;1.20;;
65096;SDS011;51686;46.758;4.356;2023-07-13T08:35:14;3.15;;;1.38;;
65096;SDS011;51686;46.758;4.356;2023-07-13T08:38:02;3.20;;;1.45;;
65096;SDS011;51686;46.758;4.356;2023-07-13T08:40:51;3.08;;;1.40;;
65096;SDS011;51686;46.758;4.356;2023-07-13T08:43:39;4.43;;;1.45;;
65096;SDS011;51686;46.758;4.356;2023-07-13T08:46:33;3.55;;;1.63;;
65096;SDS011;51686;46.758;4.356;2023-07-13T08:49:23;4.43;;;1.52;;
65096;SDS011;51686;46.758;4.356;2023-07-13T08:54:58;3.40;;;1.42;;
65096;SDS011;51686;46.758;4.356;2023-07-13T08:58:01;2.00;;;1.15;;
65096;SDS011;51686;46.758;4.356;2023-07-13T09:01:13;3.38;;;1.38;;
65096;SDS011;51686;46.758;4.356;2023-07-13T09:04:08;3.42;;;1.30;;
65096;SDS011;51686;46.758;4.356;2023-07-13T09:07:04;3.00;;;1.20;;
65096;SDS011;51686;46.758;4.356;2023-07-13T09:10:07;3.83;;;1.35;;
65096;SDS011;51686;46.758;4.356;2023-07-13T09:15:43;4.53;;;1.45;;
65096;SDS011;51686;46.758;4.356;2023-07-13T09:18:38;2.40;;;1.17;;
65096;SDS011;51686;46.758;4.356;2023-07-13T09:21:36;2.85;;;1.15;;
65096;SDS011;51686;46.758;4.356;2023-07-13T09:24:35;2.83;;;1.25;;
65096;SDS011;51686;46.758;4.356;2023-07-13T09:27:24;2.58;;;0.95;;
65096;SDS011;51686;46.758;4.356;2023-07-13T09:33:02;2.65;;;1.20;;
65096;SDS011;51686;46.758;4.356;2023-07-13T09:35:50;2.88;;;1.20;;
65096;SDS011;51686;46.758;4.356;2023-07-13T09:38:37;3.30;;;1.23;;
65096;SDS011;51686;46.758;4.356;2023-07-13T09:41:40;2.05;;;1.20;;
65096;SDS011;51686;46.758;4.356;2023-07-13T09:44:32;3.10;;;1.25;;
65096;SDS011;51686;46.758;4.356;2023-07-13T09:47:29;3.35;;;1.20;;
65096;SDS011;51686;46.758;4.356;2023-07-13T09:50:17;2.75;;;1.20;;
65096;SDS011;51686;46.758;4.356;2023-07-13T09:53:09;3.53;;;1.50;;
65096;SDS011;51686;46.758;4.356;2023-07-13T09:56:11;3.08;;;1.20;;
65096;SDS011;51686;46.758;4.356;2023-07-13T09:59:14;2.20;;;1.20;;
65096;SDS011;51686;46.758;4.356;2023-07-13T10:05:15;3.50;;;1.20;;
65096;SDS011;51686;46.758;4.356;2023-07-13T10:08:03;2.15;;;1.05;;
65096;SDS011;51686;46.758;4.356;2023-07-13T10:10:59;3.03;;;1.13;;
65096;SDS011;51686;46.758;4.356;2023-07-13T10:13:53;3.90;;;1.13;;
65096;SDS011;51686;46.758;4.356;2023-07-13T10:16:44;3.22;;;1.27;;
65096;SDS011;51686;46.758;4.356;2023-07-13T10:19:32;3.33;;;1.17;;
65096;SDS011;51686;46.758;4.356;2023-07-13T10:23:04;2.15;;;1.20;;
65096;SDS011;51686;46.758;4.356;2023-07-13T10:25:34;2.75;;;1.30;;
65096;SDS011;51686;46.758;4.356;2023-07-13T10:28:31;4.25;;;1.48;;
65096;SDS011;51686;46.758;4.356;2023-07-13T10:31:21;2.22;;;1.10;;
65096;SDS011;51686;46.758;4.356;2023-07-13T10:34:09;3.45;;;1.25;;
65096;SDS011;51686;46.758;4.356;2023-07-13T10:36:58;3.78;;;1.20;;
65096;SDS011;51686;46.758;4.356;2023-07-13T10:39:45;3.00;;;1.30;;
65096;SDS011;51686;46.758;4.356;2023-07-13T10:42:33;2.65;;;1.20;;
65096;SDS011;51686;46.758;4.356;2023-07-13T10:45:23;2.47;;;1.02;;
65096;SDS011;51686;46.758;4.356;2023-07-13T10:48:12;4.60;;;1.20;;
65096;SDS011;51686;46.758;4.356;2023-07-13T10:51:03;3.55;;;1.20;;
65096;SDS011;51686;46.758;4.356;2023-07-13T10:57:07;2.90;;;1.05;;
65096;SDS011;51686;46.758;4.356;2023-07-13T11:02:56;2.10;;;1.13;;
65096;SDS011;51686;46.758;4.356;2023-07-13T11:05:44;3.75;;;1.10;;
65096;SDS011;51686;46.758;4.356;2023-07-13T11:08:50;3.55;;;1.17;;
65096;SDS011;51686;46.758;4.356;2023-07-13T11:11:42;3.00;;;1.10;;
65096;SDS011;51686;46.758;4.356;2023-07-13T11:20:22;3.72;;;1.20;;
65096;SDS011;51686;46.758;4.356;2023-07-13T11:26:03;2.70;;;1.10;;
65096;SDS011;51686;46.758;4.356;2023-07-13T11:28:50;3.97;;;1.00;;
65096;SDS011;51686;46.758;4.356;2023-07-13T11:31:37;3.83;;;1.20;;
65096;SDS011;51686;46.758;4.356;2023-07-13T11:34:31;2.30;;;0.95;;
65096;SDS011;51686;46.758;4.356;2023-07-13T11:37:20;1.48;;;1.02;;
65096;SDS011;51686;46.758;4.356;2023-07-13T11:43:00;4.22;;;1.35;;
65096;SDS011;51686;46.758;4.356;2023-07-13T11:45:48;2.80;;;1.17;;
65096;SDS011;51686;46.758;4.356;2023-07-13T11:48:36;5.45;;;1.27;;
65096;SDS011;51686;46.758;4.356;2023-07-13T11:51:31;4.22;;;1.13;;
65096;SDS011;51686;46.758;4.356;2023-07-13T11:54:32;3.40;;;1.17;;
65096;SDS011;51686;46.758;4.356;2023-07-13T11:57:38;4.85;;;1.33;;
65096;SDS011;51686;46.758;4.356;2023-07-13T12:00:30;3.33;;;1.27;;
65096;SDS011;51686;46.758;4.356;2023-07-13T12:03:21;4.55;;;1.10;;
65096;SDS011;51686;46.758;4.356;2023-07-13T12:06:20;2.25;;;1.00;;
65096;SDS011;51686;46.758;4.356;2023-07-13T12:09:11;3.53;;;1.25;;
65096;SDS011;51686;46.758;4.356;2023-07-13T12:11:59;3.97;;;1.20;;
65096;SDS011;51686;46.758;4.356;2023-07-13T12:14:52;4.25;;;1.25;;
65096;SDS011;51686;46.758;4.356;2023-07-13T12:17:39;3.13;;;1.20;;
65096;SDS011;51686;46.758;4.356;2023-07-13T12:20:30;2.92;;;1.10;;
65096;SDS011;51686;46.758;4.356;2023-07-13T12:23:29;3.92;;;1.25;;
65096;SDS011;51686;46.758;4.356;2023-07-13T12:26:18;2.50;;;1.02;;
65096;SDS011;51686;46.758;4.356;2023-07-13T12:29:06;5.20;;;1.20;;
65096;SDS011;51686;46.758;4.356;2023-07-13T12:31:53;3.85;;;1.10;;
65096;SDS011;51686;46.758;4.356;2023-07-13T12:34:52;3.28;;;1.13;;
65096;SDS011;51686;46.758;4.356;2023-07-13T12:40:51;4.33;;;1.30;;
65096;SDS011;51686;46.758;4.356;2023-07-13T12:43:38;4.22;;;1.05;;
65096;SDS011;51686;46.758;4.356;2023-07-13T12:46:26;3.50;;;1.10;;
65096;SDS011;51686;46.758;4.356;2023-07-13T12:49:15;4.28;;;1.65;;
65096;SDS011;51686;46.758;4.356;2023-07-13T12:52:12;5.82;;;1.50;;
65096;SDS011;51686;46.758;4.356;2023-07-13T12:55:12;4.50;;;1.10;;
65096;SDS011;51686;46.758;4.356;2023-07-13T12:58:13;2.60;;;1.20;;
65096;SDS011;51686;46.758;4.356;2023-07-13T13:01:07;3.88;;;1.10;;
65096;SDS011;51686;46.758;4.356;2023-07-13T13:03:54;3.35;;;1.20;;
65096;SDS011;51686;46.758;4.356;2023-07-13T13:06:42;3.15;;;0.93;;
65096;SDS011;51686;46.758;4.356;2023-07-13T13:09:30;2.45;;;1.15;;
65096;SDS011;51686;46.758;4.356;2023-07-13T13:12:17;4.60;;;1.10;;
65096;SDS011;51686;46.758;4.356;2023-07-13T13:15:04;3.10;;;1.15;;
65096;SDS011;51686;46.758;4.356;2023-07-13T13:17:53;2.92;;;1.10;;
65096;SDS011;51686;46.758;4.356;2023-07-13T13:20:40;4.83;;;1.13;;
65096;SDS011;51686;46.758;4.356;2023-07-13T13:23:27;3.40;;;1.20;;
65096;SDS011;51686;46.758;4.356;2023-07-13T13:26:15;3.40;;;1.20;;
65096;SDS011;51686;46.758;4.356;2023-07-13T13:29:12;4.57;;;1.30;;
65096;SDS011;51686;46.758;4.356;2023-07-13T13:32:01;2.92;;;1.00;;
65096;SDS011;51686;46.758;4.356;2023-07-13T13:34:48;3.65;;;1.10;;
65096;SDS011;51686;46.758;4.356;2023-07-13T13:37:37;3.53;;;1.40;;
65096;SDS011;51686;46.758;4.356;2023-07-13T13:40:24;4.18;;;1.35;;
65096;SDS011;51686;46.758;4.356;2023-07-13T13:46:18;4.70;;;1.35;;
65096;SDS011;51686;46.758;4.356;2023-07-13T13:49:12;3.58;;;1.08;;
65096;SDS011;51686;46.758;4.356;2023-07-13T13:52:01;5.68;;;1.40;;
65096;SDS011;51686;46.758;4.356;2023-07-13T13:54:48;3.00;;;1.05;;
65096;SDS011;51686;46.758;4.356;2023-07-13T13:57:34;5.10;;;1.20;;
65096;SDS011;51686;46.758;4.356;2023-07-13T14:00:21;4.65;;;1.40;;
65096;SDS011;51686;46.758;4.356;2023-07-13T14:03:13;3.47;;;1.23;;
65096;SDS011;51686;46.758;4.356;2023-07-13T14:06:05;4.32;;;1.20;;
65096;SDS011;51686;46.758;4.356;2023-07-13T14:08:52;4.25;;;1.60;;
65096;SDS011;51686;46.758;4.356;2023-07-13T14:11:39;3.72;;;1.30;;
65096;SDS011;51686;46.758;4.356;2023-07-13T14:14:28;3.85;;;1.27;;
65096;SDS011;51686;46.758;4.356;2023-07-13T14:17:20;3.10;;;1.30;;
65096;SDS011;51686;46.758;4.356;2023-07-13T14:20:11;2.88;;;1.00;;
65096;SDS011;51686;46.758;4.356;2023-07-13T14:22:58;4.40;;;1.50;;
65096;SDS011;51686;46.758;4.356;2023-07-13T14:25:46;3.03;;;1.20;;
65096;SDS011;51686;46.758;4.356;2023-07-13T14:28:33;4.35;;;1.35;;
65096;SDS011;51686;46.758;4.356;2023-07-13T14:31:20;3.83;;;1.17;;
65096;SDS011;51686;46.758;4.356;2023-07-13T14:34:12;3.97;;;1.20;;
65096;SDS011;51686;46.758;4.356;2023-07-13T14:37:01;4.57;;;1.40;;
65096;SDS011;51686;46.758;4.356;2023-07-13T14:39:48;3.58;;;1.20;;
65096;SDS011;51686;46.758;4.356;2023-07-13T14:42:37;6.03;;;1.38;;
65096;SDS011;51686;46.758;4.356;2023-07-13T14:45:24;3.67;;;1.17;;
65096;SDS011;51686;46.758;4.356;2023-07-13T14:48:19;3.45;;;1.10;;
65096;SDS011;51686;46.758;4.356;2023-07-13T14:51:09;4.28;;;1.45;;
65096;SDS011;51686;46.758;4.356;2023-07-13T14:53:56;3.85;;;1.27;;
65096;SDS011;51686;46.758;4.356;2023-07-13T14:56:43;4.07;;;1.10;;
65096;SDS011;51686;46.758;4.356;2023-07-13T14:59:30;4.38;;;1.30;;
65096;SDS011;51686;46.758;4.356;2023-07-13T15:02:25;6.40;;;1.83;;
65096;SDS011;51686;46.758;4.356;2023-07-13T15:05:15;2.95;;;1.13;;
65096;SDS011;51686;46.758;4.356;2023-07-13T15:08:04;4.03;;;1.35;;
65096;SDS011;51686;46.758;4.356;2023-07-13T15:10:51;6.80;;;1.40;;
65096;SDS011;51686;46.758;4.356;2023-07-13T15:13:38;3.13;;;1.30;;
65096;SDS011;51686;46.758;4.356;2023-07-13T15:19:13;3.72;;;1.27;;
65096;SDS011;51686;46.758;4.356;2023-07-13T15:22:00;4.25;;;1.20;;
65096;SDS011;51686;46.758;4.356;2023-07-13T15:24:47;4.47;;;1.20;;
65096;SDS011;51686;46.758;4.356;2023-07-13T15:27:34;4.80;;;1.50;;
65096;SDS011;51686;46.758;4.356;2023-07-13T15:30:27;3.33;;;1.23;;
65096;SDS011;51686;46.758;4.356;2023-07-13T15:33:17;4.05;;;1.33;;
65096;SDS011;51686;46.758;4.356;2023-07-13T15:36:14;5.80;;;1.40;;
65096;SDS011;51686;46.758;4.356;2023-07-13T15:39:04;4.07;;;1.30;;
65096;SDS011;51686;46.758;4.356;2023-07-13T15:41:51;5.13;;;1.80;;
65096;SDS011;51686;46.758;4.356;2023-07-13T15:44:38;5.05;;;1.58;;
65096;SDS011;51686;46.758;4.356;2023-07-13T15:47:25;2.78;;;1.20;;
65096;SDS011;51686;46.758;4.356;2023-07-13T15:50:13;4.18;;;1.20;;
65096;SDS011;51686;46.758;4.356;2023-07-13T15:53:01;5.05;;;1.40;;
65096;SDS011;51686;46.758;4.356;2023-07-13T15:58:37;3.00;;;1.30;;
65096;SDS011;51686;46.758;4.356;2023-07-13T16:01:25;4.82;;;1.50;;
65096;SDS011;51686;46.758;4.356;2023-07-13T16:04:13;2.78;;;1.20;;
65096;SDS011;51686;46.758;4.356;2023-07-13T16:07:00;4.18;;;1.17;;
65096;SDS011;51686;46.758;4.356;2023-07-13T16:09:47;3.10;;;1.35;;
65096;SDS011;51686;46.758;4.356;2023-07-13T16:12:36;4.07;;;1.42;;
65096;SDS011;51686;46.758;4.356;2023-07-13T16:15:25;3.33;;;1.20;;
65096;SDS011;51686;46.758;4.356;2023-07-13T16:18:12;3.83;;;1.20;;
65096;SDS011;51686;46.758;4.356;2023-07-13T16:21:03;3.72;;;1.40;;
65096;SDS011;51686;46.758;4.356;2023-07-13T16:23:58;3.72;;;1.33;;
65096;SDS011;51686;46.758;4.356;2023-07-13T16:26:51;3.97;;;1.30;;
65096;SDS011;51686;46.758;4.356;2023-07-13T16:29:39;4.03;;;1.30;;
65096;SDS011;51686;46.758;4.356;2023-07-13T16:32:27;1.90;;;1.00;;
65096;SDS011;51686;46.758;4.356;2023-07-13T16:38:23;3.63;;;1.20;;
65096;SDS011;51686;46.758;4.356;2023-07-13T16:41:11;3.60;;;1.30;;
65096;SDS011;51686;46.758;4.356;2023-07-13T16:43:58;3.53;;;1.23;;
65096;SDS011;51686;46.758;4.356;2023-07-13T16:46:45;3.35;;;1.30;;
65096;SDS011;51686;46.758;4.356;2023-07-13T16:49:34;3.55;;;1.30;;
65096;SDS011;51686;46.758;4.356;2023-07-13T16:52:23;3.35;;;1.30;;
65096;SDS011;51686;46.758;4.356;2023-07-13T16:55:11;3.75;;;1.35;;
65096;SDS011;51686;46.758;4.356;2023-07-13T16:58:01;5.00;;;1.58;;
65096;SDS011;51686;46.758;4.356;2023-07-13T17:00:50;7.50;;;1.65;;
65096;SDS011;51686;46.758;4.356;2023-07-13T17:03:38;4.50;;;1.40;;
65096;SDS011;51686;46.758;4.356;2023-07-13T17:06:26;8.37;;;1.63;;
65096;SDS011;51686;46.758;4.356;2023-07-13T17:09:15;4.63;;;1.40;;
65096;SDS011;51686;46.758;4.356;2023-07-13T17:12:03;4.40;;;1.30;;
65096;SDS011;51686;46.758;4.356;2023-07-13T17:14:50;5.32;;;1.55;;
65096;SDS011;51686;46.758;4.356;2023-07-13T17:17:37;3.38;;;1.33;;
65096;SDS011;51686;46.758;4.356;2023-07-13T17:20:30;3.08;;;1.13;;
65096;SDS011;51686;46.758;4.356;2023-07-13T17:23:19;4.13;;;1.42;;
65096;SDS011;51686;46.758;4.356;2023-07-13T17:26:08;3.53;;;1.20;;
65096;SDS011;51686;46.758;4.356;2023-07-13T17:31:43;3.65;;;1.23;;
65096;SDS011;51686;46.758;4.356;2023-07-13T17:37:18;2.83;;;1.00;;
65096;SDS011;51686;46.758;4.356;2023-07-13T17:40:15;2.88;;;1.20;;
65096;SDS011;51686;46.758;4.356;2023-07-13T17:43:05;4.07;;;1.30;;
65096;SDS011;51686;46.758;4.356;2023-07-13T17:45:53;4.15;;;1.20;;
65096;SDS011;51686;46.758;4.356;2023-07-13T17:48:42;4.32;;;1.50;;
65096;SDS011;51686;46.758;4.356;2023-07-13T17:51:30;3.97;;;1.30;;
65096;SDS011;51686;46.758;4.356;2023-07-13T17:54:17;3.55;;;1.27;;
65096;SDS011;51686;46.758;4.356;2023-07-13T17:57:06;3.40;;;1.08;;
65096;SDS011;51686;46.758;4.356;2023-07-13T17:59:53;4.57;;;1.20;;
65096;SDS011;51686;46.758;4.356;2023-07-13T18:05:30;4.80;;;1.50;;